createdAt,value
2018-07-10T00:07:44.361Z,20.1
2018-07-10T00:17:43.596Z,20.1
2018-07-10T00:27:42.833Z,20.1
2018-07-10T00:37:42.069Z,20.1
2018-07-10T00:47:41.306Z,20.1
2018-07-10T00:57:40.546Z,20
2018-07-10T01:07:39.777Z,19.9
2018-07-10T01:17:39.016Z,19.9
2018-07-10T01:27:38.256Z,19.9
2018-07-10T01:37:37.488Z,19.9
2018-07-10T01:47:36.723Z,19.9
2018-07-10T01:57:35.959Z,19.9
2018-07-10T02:07:35.196Z,19.9
2018-07-10T02:17:34.438Z,19.8
2018-07-10T02:27:33.672Z,19.8
2018-07-10T02:37:32.909Z,19.7
2018-07-10T02:47:32.150Z,19.6
2018-07-10T02:57:31.379Z,19.7
2018-07-10T03:07:30.615Z,19.8
2018-07-10T03:17:29.849Z,19.9
2018-07-10T03:27:29.088Z,20
2018-07-10T03:37:28.324Z,20.1
2018-07-10T03:47:27.558Z,20.3
2018-07-10T03:57:26.794Z,20.3
2018-07-10T04:07:26.029Z,20.4
2018-07-10T04:17:25.272Z,20.5
2018-07-10T04:27:24.503Z,20.5
2018-07-10T04:37:23.744Z,20.5
2018-07-10T04:47:22.974Z,20.6
2018-07-10T04:57:22.215Z,20.7
2018-07-10T05:07:21.446Z,20.8
2018-07-10T05:17:20.682Z,20.9
2018-07-10T05:27:19.926Z,21.1
2018-07-10T05:37:19.210Z,21.2
2018-07-10T05:47:18.389Z,21.3
2018-07-10T05:57:17.631Z,21.3
2018-07-10T06:07:16.861Z,21.4
2018-07-10T06:17:16.164Z,21.5
2018-07-10T06:27:15.333Z,21.6
2018-07-10T06:37:14.571Z,21.7
2018-07-10T06:47:13.805Z,21.9
2018-07-10T06:57:13.045Z,22.1
2018-07-10T07:07:12.277Z,22.3
2018-07-10T07:17:11.513Z,22.4
2018-07-10T07:27:10.749Z,22.7
2018-07-10T07:37:09.984Z,22.9
2018-07-10T07:47:09.222Z,23.1
2018-07-10T07:57:08.457Z,23.4
2018-07-10T08:07:07.697Z,23.6
2018-07-10T08:17:06.929Z,23.8
2018-07-10T08:27:06.164Z,24.1
2018-07-10T08:37:05.403Z,24.2
2018-07-10T08:47:04.642Z,24.3
2018-07-10T08:57:03.871Z,24.4
2018-07-10T09:07:03.110Z,24.6
2018-07-10T09:17:02.404Z,24.6
2018-07-10T09:27:01.589Z,24.5
2018-07-10T09:37:00.814Z,24.5
2018-07-10T09:47:00.077Z,24.6
2018-07-10T09:56:59.285Z,24.6
2018-07-10T10:06:58.532Z,24.7
2018-07-10T10:16:57.761Z,24.7
2018-07-10T10:26:56.996Z,24.7
2018-07-10T10:36:56.226Z,24.7
2018-07-10T10:46:55.472Z,24.6
2018-07-10T10:56:54.699Z,24.6
2018-07-10T11:06:53.940Z,24.6
2018-07-10T11:16:53.170Z,24.6
2018-07-10T11:26:52.410Z,24.7
2018-07-10T11:36:51.645Z,24.8
2018-07-10T11:46:50.877Z,24.7
2018-07-10T11:56:50.114Z,24.6
2018-07-10T12:06:49.349Z,24.4
2018-07-10T12:16:48.591Z,24.4
2018-07-10T12:26:47.822Z,24.3
2018-07-10T12:36:47.065Z,24.3
2018-07-10T12:46:46.295Z,24.3
2018-07-10T12:56:45.528Z,24.1
2018-07-10T13:06:44.770Z,24.3
2018-07-10T13:16:44.002Z,24.3
2018-07-10T13:26:43.236Z,24.2
2018-07-10T13:36:42.470Z,24.1
2018-07-10T13:46:41.707Z,24.1
2018-07-10T13:56:40.941Z,24.1
2018-07-10T14:06:40.178Z,24.2
2018-07-10T14:16:39.415Z,24.2
2018-07-10T14:26:38.651Z,24.1
2018-07-10T14:36:37.888Z,24.2
2018-07-10T14:46:37.125Z,24.4
2018-07-10T14:56:36.367Z,24.2
2018-07-10T15:06:35.594Z,24.2
2018-07-10T15:16:34.829Z,24.4
2018-07-10T15:26:34.067Z,24.4
2018-07-10T15:36:33.309Z,24.3
2018-07-10T15:46:32.539Z,24.1
2018-07-10T15:56:31.778Z,23.9
2018-07-10T16:06:31.012Z,23.7
2018-07-10T16:16:30.250Z,23.6
2018-07-10T16:26:29.484Z,23.4
2018-07-10T16:36:28.727Z,23.3
2018-07-10T16:46:27.956Z,23.2
2018-07-10T16:56:27.192Z,23.2
2018-07-10T17:06:26.437Z,23.1
2018-07-10T17:16:25.716Z,23.1
2018-07-10T17:26:24.901Z,23.3
2018-07-10T17:36:24.145Z,23.4
2018-07-10T17:46:23.424Z,23.6
2018-07-10T17:56:22.611Z,23.8
2018-07-10T18:06:21.850Z,23.8
2018-07-10T18:16:21.116Z,23.9
2018-07-10T18:26:20.317Z,23.9
2018-07-10T18:36:19.566Z,23.9
2018-07-10T18:46:18.789Z,23.9
2018-07-10T18:56:18.027Z,24
2018-07-10T19:06:17.262Z,24.1
2018-07-10T19:16:16.498Z,24.1
2018-07-10T19:26:15.747Z,23.9
2018-07-10T19:36:14.973Z,23.7
2018-07-10T19:46:14.214Z,23.4
2018-07-10T19:56:13.442Z,23.3
2018-07-10T20:06:12.680Z,23
2018-07-10T20:16:11.914Z,22.9
2018-07-10T20:26:11.149Z,22.7
2018-07-10T20:36:10.387Z,22.6
2018-07-10T20:46:09.747Z,22.4
2018-07-10T20:56:08.854Z,22.3
2018-07-10T21:06:08.088Z,22.2
2018-07-10T21:16:07.320Z,22.1
2018-07-10T21:26:06.606Z,22
2018-07-10T21:36:05.788Z,21.9
2018-07-10T21:46:05.025Z,21.8
2018-07-10T21:56:04.262Z,21.7
2018-07-10T22:06:03.540Z,21.6
2018-07-10T22:16:02.722Z,21.6
2018-07-10T22:26:01.959Z,21.4
2018-07-10T22:36:01.196Z,21.4
2018-07-10T22:46:00.427Z,21.3
2018-07-10T22:55:59.652Z,21.3
2018-07-10T23:05:58.884Z,21.2
2018-07-10T23:15:58.126Z,21.2
2018-07-10T23:25:57.350Z,21.1
2018-07-10T23:35:56.582Z,21.1
2018-07-10T23:45:55.814Z,20.9
2018-07-10T23:55:55.047Z,20.9
